ADDS METAR Data INFO
IDs: Format: Raw Decoded Include TAF

Data at: 0852 UTC 19 Jun 2018

PFKW 190756Z AUTO 20010KT 10SM FEW060 12/09 A2958 RMK AO2 SLP014 T01170089
PFKW 190656Z AUTO 19014KT 10SM BKN055 OVC070 13/09 A2956 RMK AO2 SLP010 T01280089
PFKW 190556Z AUTO 20012KT 10SM CLR 14/09 A2953 RMK AO2 SLP999 60001 T01390089 10156 20128 53025
PFKW 190456Z AUTO 21014G19KT 10SM SCT029 14/09 A2950 RMK AO2 SLP990 T01440089
PFKW 190356Z AUTO 21014KT 10SM BKN032 BKN043 15/10 A2948 RMK AO2 RAB01E15 SLP981 P0000 T01500100
PFKW 190256Z AUTO 20013G18KT 10SM SCT034 BKN095 OVC110 15/11 A2946 RMK AO2 RAB0159E28 SLP974 P0001 60001 T01500106 53016
PFKW 190056Z AUTO 19007KT 10SM FEW043 OVC065 14/11 A2942 RMK AO2 RAE51 SLP963 P0000 T01440111
PFKW 182328Z AUTO 10008KT 10SM SCT029 SCT043 OVC070 16/08 A2941 RMK AO2
PFKW 182316Z AUTO 12006KT 10SM BKN029 BKN042 OVC070 16/09 A2940 RMK AO2
PFKW 182309Z AUTO 13009KT 10SM SCT027 BKN035 OVC070 16/09 A2940 RMK AO2
PFKW 182256Z AUTO 10009KT 10SM BKN027 BKN035 OVC110 16/09 A2940 RMK AO2 SLP955 T01560094
PFKW 182247Z AUTO 08008KT 10SM BKN027 BKN039 OVC070 15/09 A2940 RMK AO2
PFKW 182156Z AUTO 08012G17KT 10SM FEW021 SCT028 OVC070 14/09 A2940 RMK AO2 SLP955 T01440094
PFKW 182153Z AUTO 07010KT 10SM SCT023 OVC070 14/09 A2940 RMK AO2
PFKW 182056Z AUTO 06015KT 10SM BKN016 BKN022 OVC060 14/09 A2940 RMK AO2 SLP955 60000 T01390094 56004
PFKW 182027Z AUTO 06010KT 10SM SCT014 BKN021 OVC060 13/10 A2940 RMK AO2
PFKW 181956Z AUTO 04011KT 10SM BKN012 OVC055 13/11 A2940 RMK AO2 SLP956 T01280106
PFKW 181910Z AUTO 04010KT 10SM BKN010 OVC060 12/10 A2940 RMK AO2 CIG 007V013
PFKW 181856Z AUTO 04011KT 10SM OVC008 12/10 A2940 RMK AO2 RAE52 CIG 005V013 SLP956 P0000 T01170100
PFKW 181756Z AUTO 04011KT 10SM -RA BKN008 BKN048 OVC065 11/10 A2941 RMK AO2 CIG 006V016 SLP959 P0000 60003 T01060100 10106 20089 56014
PFKW 181749Z AUTO 05009KT 10SM -RA SCT008 BKN048 OVC065 11/09 A2941 RMK AO2 P0000
PFKW 181656Z AUTO 04008KT 10SM -RA OVC008 11/09 A2942 RMK AO2 SLP963 P0001 T01060094
PFKW 181639Z AUTO 04008KT 10SM -RA BKN008 BKN024 OVC060 10/09 A2943 RMK AO2 P0000
PFKW 181556Z AUTO 04007KT 10SM -RA BKN055 OVC070 10/09 A2943 RMK AO2 SLP967 P0001 T01000089
PFKW 181456Z AUTO 05007KT 10SM -RA BKN060 OVC070 09/09 A2945 RMK AO2 SLP973 P0001 60001 T00940089 56013
PFKW 181356Z AUTO 06006KT 10SM -RA BKN060 OVC070 09/08 A2946 RMK AO2 SLP977 P0000 T00890083
PFKW 181256Z AUTO 06008KT 10SM -RA OVC060 09/08 A2947 RMK AO2 RAB22 SLP979 P0000 T00890078
PFKW 181156Z AUTO 05007KT 10SM SCT060 SCT075 OVC110 09/08 A2949 RMK AO2 SLP985 60001 70004 T00940078 10100 20094 58024
PFKW 181056Z AUTO 02007KT 10SM BKN120 09/08 A2952 RMK AO2 SLP994 T00940083
PFKW 180956Z AUTO 02006KT 10SM SCT080 BKN100 09/09 A2954 RMK AO2 SLP004 T00940089
PFKW 180856Z AUTO 01006KT 10SM OVC050 09/08 A2956 RMK AO2 SLP009 60001 T00940083 401220089 58013
PFKW 180756Z AUTO 36004KT 10SM FEW045 OVC055 10/09 A2957 RMK AO2 RAE19 SLP014 P0000 T01000089
PFKW 180656Z AUTO 01003KT 10SM -RA BKN047 BKN065 OVC080 10/09 A2959 RMK AO2 SLP021 P0001 T01000089
PFKW 180456Z AUTO 25004KT 10SM -RA OVC070 10/09 A2961 RMK AO2 SLP026 P0001 T01000089
PFKW 180356Z AUTO 08005KT 10SM -RA FEW038 OVC065 12/09 A2960 RMK AO2 SLP024 P0000 T01170089
PFKW 180156Z AUTO 09005KT 10SM -RA FEW041 BKN055 OVC070 12/09 A2961 RMK AO2 RAB10 SLP027 P0000 T01170089
PFKW 180056Z AUTO 13008KT 10SM OVC080 12/08 A2962 RMK AO2 RAE16 SLP029 P0000 T01220083
PFKW 180029Z AUTO 15008KT 10SM SCT021 BKN055 OVC070 12/08 A2962 RMK AO2 RAE16 P0000
PFKW 180020Z AUTO 15004KT 10SM FEW016 BKN021 OVC070 11/09 A2962 RMK AO2 RAE16 P0000
PFKW 172356Z AUTO 09006KT 10SM -RA FEW015 BKN041 OVC055 12/09 A2962 RMK AO2 SLP030 P0000 60000 T01170089 10117 20100 53003
PFKW 172256Z AUTO 09009KT 10SM -RA FEW014 SCT020 OVC060 11/09 A2961 RMK AO2 SLP027 P0000 T01110089
PFKW 172235Z AUTO 09009KT 10SM -RA SCT016 BKN022 OVC060 11/09 A2961 RMK AO2 P0000
PFKW 172156Z AUTO 10008KT 10SM -RA SCT011 BKN060 OVC080 11/09 A2961 RMK AO2 SLP027 P0000 T01110089
PFKW 172145Z AUTO 11009KT 10SM -RA BKN011 OVC060 11/09 A2961 RMK AO2 P0000
PFKW 172135Z AUTO 11008KT 10SM -RA SCT013 BKN018 OVC060 11/09 A2961 RMK AO2 P0000
PFKW 172124Z AUTO 09008KT 10SM -RA BKN013 BKN019 OVC040 11/09 A2961 RMK AO2 P0000
PFKW 172112Z AUTO 10007KT 10SM -RA SCT013 BKN021 OVC060 11/09 A2961 RMK AO2 P0000
PFKW 172056Z AUTO 08009KT 10SM -RA SCT013 OVC060 11/09 A2961 RMK AO2 SLP026 P0000 60000 T01060094 51012